Time;durP1;ratioP1;P1;durP2;ratioP2;P2;SDS_P1;SDS_P2;PMS_P1;PMS_P2;Temp;Humidity;BMP_temperature;BMP_pressure;BME280_temperature;BME280_humidity;BME280_pressure;Samples;Min_cycle;Max_cycle;Signal;HPM_P1;HPM_P2
2022/01/09 00:01:16;;;;;;;78.22;51.88;;;20.90;95.10;;;;;;4180400;28;20484;-63
2022/01/09 00:03:21;;;;;;;89.07;56.88;;;21.00;95.10;;;;;;4180419;28;20170;-63
2022/01/09 00:05:26;;;;;;;85.93;54.22;;;21.00;95.00;;;;;;4180292;28;20106;-64
2022/01/09 00:07:30;;;;;;;74.20;45.50;;;21.00;95.00;;;;;;4180677;28;20041;-63
2022/01/09 00:09:37;;;;;;;67.22;42.83;;;21.00;95.00;;;;;;4180295;28;20037;-63
2022/01/09 00:11:41;;;;;;;67.22;40.88;;;21.00;95.00;;;;;;4180427;28;20504;-63
2022/01/09 00:13:47;;;;;;;63.85;41.10;;;21.00;95.10;;;;;;4180336;28;20106;-63
2022/01/09 00:15:52;;;;;;;62.78;40.65;;;21.00;95.10;;;;;;4172197;28;20048;-62
2022/01/09 00:17:57;;;;;;;71.65;41.67;;;21.00;95.20;;;;;;4180611;28;20450;-64
2022/01/09 00:20:01;;;;;;;67.35;41.83;;;21.00;95.30;;;;;;4177972;28;20037;-64
2022/01/09 00:22:06;;;;;;;70.20;41.97;;;21.00;95.30;;;;;;4178588;28;20136;-63
2022/01/09 00:24:11;;;;;;;71.75;43.17;;;21.00;95.40;;;;;;4177123;28;20048;-62
2022/01/09 00:26:16;;;;;;;79.88;44.13;;;20.90;95.70;;;;;;4174483;28;20049;-62
2022/01/09 00:28:20;;;;;;;69.95;43.17;;;20.90;95.70;;;;;;4180174;28;20045;-62
2022/01/09 00:30:25;;;;;;;75.90;45.15;;;20.90;95.90;;;;;;4178214;28;20490;-62
2022/01/09 00:32:30;;;;;;;73.97;46.65;;;21.00;95.70;;;;;;4179246;28;20048;-62
2022/01/09 00:34:35;;;;;;;76.28;46.53;;;21.20;95.60;;;;;;4179095;28;20061;-62
2022/01/09 00:36:39;;;;;;;92.82;55.75;;;21.20;95.50;;;;;;4176829;28;20044;-62
2022/01/09 00:38:43;;;;;;;105.70;60.90;;;21.30;95.60;;;;;;4178598;28;20155;-62
2022/01/09 00:40:48;;;;;;;100.03;60.00;;;21.30;95.90;;;;;;4179072;28;20409;-62
2022/01/09 00:42:52;;;;;;;89.72;55.97;;;21.20;96.20;;;;;;4178513;28;20151;-62
2022/01/09 00:44:57;;;;;;;86.63;53.63;;;21.10;96.30;;;;;;4178452;28;20041;-62
2022/01/09 00:47:01;;;;;;;90.03;53.65;;;20.90;96.70;;;;;;4176278;28;20484;-62
2022/01/09 00:49:05;;;;;;;87.65;55.75;;;21.00;96.70;;;;;;4173706;28;20052;-62
2022/01/09 00:51:10;;;;;;;90.05;57.63;;;20.90;96.80;;;;;;4174252;28;20140;-62
2022/01/09 00:53:14;;;;;;;95.18;59.13;;;21.00;96.70;;;;;;4174494;28;20095;-62
2022/01/09 00:55:18;;;;;;;101.95;60.40;;;21.10;96.70;;;;;;4175988;28;20052;-62
2022/01/09 00:57:23;;;;;;;95.05;58.70;;;21.20;96.60;;;;;;4176105;28;20400;-63
2022/01/09 00:59:27;;;;;;;103.63;60.30;;;21.30;96.40;;;;;;4175031;28;20049;-63
2022/01/09 01:01:31;;;;;;;104.93;62.85;;;21.40;96.10;;;;;;4176458;28;20048;-64
2022/01/09 01:03:36;;;;;;;106.13;59.85;;;21.40;96.00;;;;;;4176508;28;20412;-65
2022/01/09 01:05:40;;;;;;;93.88;60.60;;;21.50;95.90;;;;;;4173309;28;20055;-63
2022/01/09 01:07:45;;;;;;;92.72;59.17;;;21.60;95.80;;;;;;4173967;28;20045;-64
2022/01/09 01:09:50;;;;;;;98.22;65.20;;;21.60;95.60;;;;;;4174041;28;20049;-63
2022/01/09 01:11:54;;;;;;;104.63;67.13;;;21.60;95.80;;;;;;4179520;28;20440;-63
2022/01/09 01:13:59;;;;;;;109.60;70.35;;;21.60;95.90;;;;;;4179466;28;20045;-63
2022/01/09 01:16:04;;;;;;;117.90;75.03;;;21.80;95.70;;;;;;4178415;28;20045;-64
2022/01/09 01:18:10;;;;;;;118.25;73.75;;;21.80;95.60;;;;;;4179170;28;20037;-64
2022/01/09 01:20:20;;;;;;;103.00;65.00;;;21.90;95.50;;;;;;4176219;28;20520;-65
2022/01/09 01:22:25;;;;;;;68.97;42.15;;;22.00;95.40;;;;;;4177052;28;20041;-63
2022/01/09 01:24:29;;;;;;;68.40;42.90;;;22.10;95.30;;;;;;4178651;28;20041;-63
2022/01/09 01:26:34;;;;;;;58.17;35.30;;;22.10;95.30;;;;;;4178840;28;20114;-62
2022/01/09 01:28:39;;;;;;;47.90;31.25;;;22.20;95.20;;;;;;4179180;28;20045;-63
2022/01/09 01:30:43;;;;;;;43.80;28.75;;;22.20;95.10;;;;;;4177156;28;20057;-62
2022/01/09 01:32:48;;;;;;;38.58;26.98;;;22.20;95.10;;;;;;4175815;28;20059;-63
2022/01/09 01:34:56;;;;;;;39.90;25.83;;;22.30;95.20;;;;;;4174164;28;20419;-63
2022/01/09 01:37:01;;;;;;;38.97;25.20;;;22.40;95.10;;;;;;4174301;28;20064;-63
2022/01/09 01:39:06;;;;;;;30.65;20.58;;;22.40;95.10;;;;;;4176576;28;20049;-62
2022/01/09 01:41:12;;;;;;;31.38;21.83;;;22.40;95.10;;;;;;4174488;28;20048;-61
2022/01/09 01:43:16;;;;;;;34.08;21.50;;;22.50;95.00;;;;;;4191455;28;20044;-64
2022/01/09 01:45:22;;;;;;;33.35;21.27;;;22.50;95.10;;;;;;4178041;28;20301;-63
2022/01/09 01:47:26;;;;;;;34.97;22.05;;;22.50;95.10;;;;;;4177925;28;20130;-63
2022/01/09 01:49:32;;;;;;;36.92;22.45;;;22.60;95.00;;;;;;4178980;28;20211;-62
2022/01/09 01:51:41;;;;;;;43.28;23.90;;;22.60;95.20;;;;;;4177610;28;20048;-63
2022/01/09 01:53:46;;;;;;;36.67;22.90;;;22.60;95.30;;;;;;4171863;28;20260;-64
2022/01/09 01:55:55;;;;;;;31.60;19.70;;;22.70;95.00;;;;;;4171707;28;20514;-64
2022/01/09 01:58:00;;;;;;;32.40;16.95;;;22.70;95.00;;;;;;4172182;28;20063;-64
2022/01/09 02:00:06;;;;;;;25.35;14.15;;;22.70;94.80;;;;;;4172070;28;20052;-64
2022/01/09 02:02:10;;;;;;;19.00;12.10;;;22.80;94.70;;;;;;4175406;28;20052;-64
2022/01/09 02:04:15;;;;;;;17.13;10.57;;;22.80;94.60;;;;;;4176081;28;20681;-64
2022/01/09 02:06:20;;;;;;;19.33;10.70;;;22.80;94.60;;;;;;4171527;28;20090;-63
2022/01/09 02:08:25;;;;;;;17.38;10.95;;;22.90;94.40;;;;;;4170837;28;20422;-64
2022/01/09 02:10:29;;;;;;;18.02;11.13;;;22.90;94.50;;;;;;4169051;28;20056;-63
2022/01/09 02:12:38;;;;;;;22.05;11.85;;;23.00;94.30;;;;;;4171907;28;20057;-64
2022/01/09 02:14:48;;;;;;;23.55;11.70;;;23.00;94.40;;;;;;4173406;28;20056;-64
2022/01/09 02:16:53;;;;;;;27.00;12.23;;;23.00;94.30;;;;;;4179463;28;20041;-63
2022/01/09 02:19:02;;;;;;;20.90;12.45;;;23.10;94.10;;;;;;4178308;28;20053;-65
2022/01/09 02:21:07;;;;;;;20.38;12.25;;;23.10;94.00;;;;;;4175551;28;20079;-64
2022/01/09 02:23:12;;;;;;;19.27;11.52;;;23.20;94.00;;;;;;4173034;28;20033;-64
2022/01/09 02:25:17;;;;;;;25.17;12.48;;;23.20;94.00;;;;;;4166874;28;20045;-64
2022/01/09 02:27:21;;;;;;;27.55;12.98;;;23.20;93.90;;;;;;4172602;28;20045;-64
2022/01/09 02:29:26;;;;;;;24.45;12.18;;;23.40;94.00;;;;;;4167305;28;20049;-63
2022/01/09 02:31:34;;;;;;;19.23;11.93;;;23.40;93.80;;;;;;4174543;28;20091;-63
2022/01/09 02:33:38;;;;;;;23.85;12.18;;;23.40;93.60;;;;;;4174328;28;20053;-63
2022/01/09 02:35:48;;;;;;;21.05;12.35;;;23.40;93.60;;;;;;4175475;28;20226;-64
2022/01/09 02:37:52;;;;;;;23.27;12.25;;;23.50;93.80;;;;;;4171419;28;20126;-64
2022/01/09 02:39:56;;;;;;;18.45;11.73;;;23.50;93.50;;;;;;4173198;28;20049;-63
2022/01/09 02:42:02;;;;;;;20.73;12.18;;;23.60;93.30;;;;;;4174057;28;20499;-63
2022/01/09 02:44:08;;;;;;;22.13;12.75;;;23.60;93.30;;;;;;4170356;28;20048;-64
2022/01/09 02:46:36;;;;;;;19.20;13.30;;;23.60;93.20;;;;;;4176678;28;20045;-64
2022/01/09 02:48:40;;;;;;;22.63;13.57;;;23.70;93.10;;;;;;4173690;28;20477;-64
2022/01/09 02:50:58;;;;;;;22.25;13.32;;;23.70;93.00;;;;;;4176872;28;20056;-62
2022/01/09 02:53:14;;;;;;;24.48;12.65;;;23.70;92.90;;;;;;4175908;28;20037;-67
2022/01/09 02:55:19;;;;;;;27.85;13.60;;;23.80;93.00;;;;;;4174706;28;20132;-64
2022/01/09 02:57:27;;;;;;;21.85;12.38;;;23.90;92.90;;;;;;4175910;28;20048;-65
2022/01/09 02:59:33;;;;;;;24.77;13.05;;;23.90;92.80;;;;;;4174035;28;20156;-65
2022/01/09 03:01:38;;;;;;;22.52;13.90;;;24.00;92.50;;;;;;4175955;28;20163;-64
2022/01/09 03:03:43;;;;;;;23.33;12.25;;;24.00;92.50;;;;;;4173652;28;20099;-64
2022/01/09 03:05:54;;;;;;;25.52;12.25;;;24.10;92.70;;;;;;4175917;28;20045;-64
2022/01/09 03:08:03;;;;;;;18.10;11.57;;;24.10;92.60;;;;;;4177178;28;20057;-64
2022/01/09 03:10:10;;;;;;;22.80;12.10;;;24.10;92.30;;;;;;4175203;28;20522;-63
2022/01/09 03:12:17;;;;;;;28.25;13.50;;;24.20;92.40;;;;;;4173603;28;20095;-63
2022/01/09 03:14:22;;;;;;;20.52;11.82;;;24.20;92.30;;;;;;4174614;28;20123;-62
2022/01/09 03:16:29;;;;;;;17.30;11.15;;;24.30;92.70;;;;;;4177440;28;20120;-63
2022/01/09 03:18:33;;;;;;;20.27;10.18;;;24.40;92.20;;;;;;4171171;28;20032;-64
2022/01/09 03:20:40;;;;;;;14.45;9.85;;;24.40;92.10;;;;;;4172790;28;20107;-64
2022/01/09 03:22:54;;;;;;;24.13;9.98;;;24.40;91.90;;;;;;4174721;28;20072;-63
2022/01/09 03:25:04;;;;;;;18.52;9.57;;;24.50;91.70;;;;;;4171911;28;20488;-62
2022/01/09 03:27:15;;;;;;;17.27;9.50;;;24.50;91.60;;;;;;4175588;28;20321;-63
2022/01/09 03:29:32;;;;;;;19.05;9.45;;;24.60;91.40;;;;;;4177718;28;20056;-63
2022/01/09 03:31:39;;;;;;;25.70;11.13;;;24.60;91.40;;;;;;4177680;28;20095;-63
2022/01/09 03:33:43;;;;;;;19.13;10.27;;;24.60;91.70;;;;;;4177896;28;20396;-58
2022/01/09 03:35:49;;;;;;;15.73;9.63;;;24.70;91.60;;;;;;4177774;28;20041;-64
2022/01/09 03:37:53;;;;;;;16.02;10.32;;;24.80;91.10;;;;;;4176941;28;20334;-63
2022/01/09 03:39:58;;;;;;;15.95;9.90;;;24.80;91.10;;;;;;4177329;28;20051;-63
2022/01/09 03:42:03;;;;;;;13.18;9.27;;;24.90;91.00;;;;;;4175221;28;20511;-62
2022/01/09 03:44:09;;;;;;;14.70;9.23;;;24.90;90.70;;;;;;4176340;28;20041;-63
2022/01/09 03:46:13;;;;;;;21.77;10.85;;;24.90;90.80;;;;;;4172364;28;20080;-64
2022/01/09 03:48:18;;;;;;;14.90;10.40;;;25.00;91.00;;;;;;4171748;28;20136;-63
2022/01/09 03:50:24;;;;;;;14.35;11.05;;;25.10;90.70;;;;;;4173181;28;20128;-65
2022/01/09 03:52:29;;;;;;;18.58;10.65;;;25.10;90.10;;;;;;4168374;28;20037;-63
2022/01/09 03:54:36;;;;;;;18.48;11.80;;;25.10;90.10;;;;;;4170047;28;20056;-63
2022/01/09 03:56:41;;;;;;;17.08;11.25;;;25.10;90.20;;;;;;4169424;28;20037;-63
2022/01/09 03:58:46;;;;;;;15.05;10.45;;;25.20;90.60;;;;;;4174201;28;20053;-64
2022/01/09 04:00:50;;;;;;;18.92;11.20;;;25.30;90.50;;;;;;4176108;28;20123;-63
2022/01/09 04:02:55;;;;;;;16.52;11.10;;;25.30;90.20;;;;;;4175697;28;20075;-65
2022/01/09 04:05:00;;;;;;;17.17;11.82;;;25.40;90.20;;;;;;4175459;28;20082;-64
2022/01/09 04:07:05;;;;;;;17.25;11.10;;;25.40;90.10;;;;;;4177667;28;20044;-63
2022/01/09 04:09:18;;;;;;;13.18;9.63;;;25.50;90.20;;;;;;4179451;28;20503;-63
2022/01/09 04:11:28;;;;;;;15.10;9.77;;;25.60;90.00;;;;;;4179815;28;20051;-64
2022/01/09 04:13:36;;;;;;;13.38;9.20;;;25.60;87.90;;;;;;4178097;28;20048;-63
2022/01/09 04:15:46;;;;;;;18.08;9.70;;;25.60;87.70;;;;;;4179122;28;20503;-64
2022/01/09 04:17:54;;;;;;;14.65;9.20;;;25.70;87.70;;;;;;4177939;28;20060;-63
2022/01/09 04:19:59;;;;;;;15.18;9.75;;;25.70;87.30;;;;;;4178930;28;20053;-63
2022/01/09 04:22:04;;;;;;;19.27;10.35;;;25.80;87.50;;;;;;4179039;28;20049;-63
2022/01/09 04:24:10;;;;;;;14.68;9.80;;;25.80;87.00;;;;;;4177387;28;20041;-63
2022/01/09 04:26:18;;;;;;;16.08;10.05;;;25.80;87.60;;;;;;4174442;28;20132;-65
2022/01/09 04:28:23;;;;;;;37.28;10.77;;;25.90;88.00;;;;;;4176765;28;20130;-62
2022/01/09 04:30:29;;;;;;;22.15;10.60;;;25.90;87.50;;;;;;4176877;28;20053;-63
2022/01/09 04:32:34;;;;;;;25.52;9.90;;;25.90;86.70;;;;;;4178748;28;20419;-63
2022/01/09 04:34:39;;;;;;;18.23;10.25;;;26.00;86.20;;;;;;4179891;28;20049;-63
2022/01/09 04:36:45;;;;;;;38.28;11.85;;;26.00;86.00;;;;;;4179810;28;20446;-63
2022/01/09 04:38:50;;;;;;;29.30;11.57;;;26.10;86.10;;;;;;4179910;28;20045;-64
2022/01/09 04:40:55;;;;;;;13.85;9.70;;;26.10;86.10;;;;;;4179390;28;20037;-64
2022/01/09 04:43:02;;;;;;;20.38;10.30;;;26.30;84.70;;;;;;4179867;28;20045;-63
2022/01/09 04:45:08;;;;;;;13.30;8.88;;;26.30;84.60;;;;;;4179517;28;20127;-64
2022/01/09 04:47:16;;;;;;;14.45;8.27;;;26.30;83.70;;;;;;4176102;28;20427;-63
2022/01/09 04:49:24;;;;;;;15.32;8.32;;;26.30;83.90;;;;;;4176644;28;20584;-63
2022/01/09 04:51:29;;;;;;;15.30;8.85;;;26.40;84.20;;;;;;4176945;28;20083;-63
2022/01/09 04:53:34;;;;;;;16.45;8.57;;;26.40;81.90;;;;;;4172520;28;20519;-63
2022/01/09 04:55:42;;;;;;;15.48;8.75;;;26.50;81.50;;;;;;4173897;28;20071;-62
2022/01/09 04:57:46;;;;;;;15.70;8.70;;;26.50;81.80;;;;;;4175319;28;20064;-62
2022/01/09 04:59:51;;;;;;;16.10;8.57;;;26.40;82.40;;;;;;4171788;28;20051;-63
2022/01/09 05:01:56;;;;;;;13.45;8.82;;;26.50;83.40;;;;;;4171684;28;20041;-62
2022/01/09 05:04:00;;;;;;;14.95;9.48;;;26.60;82.90;;;;;;4173961;28;20087;-62
2022/01/09 05:06:05;;;;;;;18.45;8.93;;;26.90;82.60;;;;;;4176890;28;20685;-63
2022/01/09 05:08:09;;;;;;;14.93;8.95;;;26.90;81.90;;;;;;4176987;28;20091;-63
2022/01/09 05:10:14;;;;;;;15.32;8.50;;;26.80;80.90;;;;;;4172937;28;20148;-64
2022/01/09 05:12:19;;;;;;;12.82;8.65;;;26.80;81.20;;;;;;4171957;28;20140;-64
2022/01/09 05:14:23;;;;;;;14.70;8.40;;;26.90;81.70;;;;;;4175323;28;20084;-64
2022/01/09 05:16:28;;;;;;;14.70;8.32;;;26.90;81.50;;;;;;4175869;28;20155;-63
2022/01/09 05:18:41;;;;;;;10.88;8.07;;;26.90;82.00;;;;;;4175376;28;20395;-64
2022/01/09 05:20:46;;;;;;;;;;;27.00;81.20;;;;;;4173633;28;20156;-63
2022/01/09 05:22:50;;;;;;;11.73;7.97;;;27.10;81.00;;;;;;4172892;28;19939;-65
2022/01/09 05:24:57;;;;;;;13.40;7.95;;;27.20;80.80;;;;;;4168939;28;20051;-64
2022/01/09 05:27:03;;;;;;;11.70;8.00;;;27.20;79.80;;;;;;4173574;28;20061;-64
2022/01/09 05:29:08;;;;;;;13.13;8.20;;;27.10;80.40;;;;;;4174335;28;20131;-64
2022/01/09 05:31:13;;;;;;;10.95;7.18;;;27.20;80.30;;;;;;4174696;28;20064;-64
2022/01/09 05:33:17;;;;;;;11.02;7.50;;;27.20;80.40;;;;;;4174608;28;20170;-64
2022/01/09 05:35:22;;;;;;;13.88;7.65;;;27.20;80.40;;;;;;4174542;28;20380;-63
2022/01/09 05:37:28;;;;;;;18.38;7.97;;;27.20;79.70;;;;;;4173114;28;20049;-63
2022/01/09 05:39:33;;;;;;;11.05;7.38;;;27.20;79.40;;;;;;4174859;28;20033;-62
2022/01/09 05:41:37;;;;;;;11.82;7.32;;;27.30;79.10;;;;;;4174233;28;20400;-62
2022/01/09 05:43:42;;;;;;;13.25;8.25;;;27.30;79.00;;;;;;4174440;28;20385;-62
2022/01/09 05:45:47;;;;;;;12.88;9.70;;;27.50;78.00;;;;;;4173252;28;20508;-63
2022/01/09 05:47:52;;;;;;;16.52;9.35;;;27.50;78.20;;;;;;4174532;28;20076;-62
2022/01/09 05:49:56;;;;;;;17.27;9.52;;;27.50;77.60;;;;;;4174617;28;20064;-63
2022/01/09 05:52:02;;;;;;;13.35;9.65;;;27.60;76.80;;;;;;4174858;28;20159;-62
2022/01/09 05:54:07;;;;;;;16.08;9.98;;;27.80;76.20;;;;;;4174332;28;20057;-62
2022/01/09 05:56:11;;;;;;;16.42;10.15;;;27.80;76.30;;;;;;4172420;28;20040;-62
2022/01/09 05:58:16;;;;;;;31.83;10.80;;;27.70;77.30;;;;;;4173653;28;20277;-62
2022/01/09 06:00:21;;;;;;;13.85;10.07;;;27.80;77.20;;;;;;4173820;28;20542;-63
2022/01/09 06:02:25;;;;;;;16.05;9.63;;;27.80;77.10;;;;;;4174279;28;20044;-62
2022/01/09 06:04:30;;;;;;;12.10;8.82;;;27.70;77.40;;;;;;4175293;28;20036;-62
2022/01/09 06:06:35;;;;;;;14.02;8.95;;;27.70;77.30;;;;;;4175154;28;20152;-63
2022/01/09 06:08:39;;;;;;;13.98;8.43;;;27.70;77.00;;;;;;4175623;28;20060;-63
2022/01/09 06:10:44;;;;;;;13.65;8.70;;;27.80;77.70;;;;;;4172583;28;20047;-63
2022/01/09 06:12:49;;;;;;;17.80;7.90;;;27.90;77.60;;;;;;4175214;28;20380;-63
2022/01/09 06:14:54;;;;;;;11.70;8.30;;;28.00;77.00;;;;;;4174832;28;20048;-63
2022/01/09 06:16:58;;;;;;;12.35;8.15;;;28.00;77.40;;;;;;4175147;28;20068;-63
2022/01/09 06:19:03;;;;;;;13.35;8.20;;;28.00;77.80;;;;;;4172378;28;20132;-63
2022/01/09 06:21:07;;;;;;;16.10;8.00;;;28.00;77.80;;;;;;4173712;28;20391;-63
2022/01/09 06:23:12;;;;;;;14.82;7.97;;;28.10;78.20;;;;;;4175360;28;20083;-63
2022/01/09 06:25:17;;;;;;;13.27;8.13;;;28.10;78.60;;;;;;4174138;28;20384;-63
2022/01/09 06:27:23;;;;;;;12.43;7.78;;;28.20;77.80;;;;;;4173751;28;20603;-63
2022/01/09 06:29:28;;;;;;;12.15;8.13;;;28.20;77.80;;;;;;4174764;28;20361;-63
2022/01/09 06:31:32;;;;;;;14.02;8.15;;;28.20;76.80;;;;;;4173177;28;20067;-63
2022/01/09 06:33:36;;;;;;;13.50;8.38;;;28.20;76.40;;;;;;4175347;28;20053;-63
2022/01/09 06:35:41;;;;;;;13.60;8.95;;;28.40;74.60;;;;;;4174184;28;20091;-63
2022/01/09 06:37:45;;;;;;;15.55;8.05;;;28.50;74.40;;;;;;4174651;28;20033;-63
2022/01/09 06:39:50;;;;;;;15.02;8.07;;;28.40;74.30;;;;;;4174514;28;20126;-63
2022/01/09 06:41:55;;;;;;;14.43;8.13;;;28.40;74.80;;;;;;4175093;28;20086;-63
2022/01/09 06:44:00;;;;;;;15.00;8.07;;;28.30;75.50;;;;;;4173358;28;20053;-63
2022/01/09 06:46:05;;;;;;;12.80;8.77;;;28.30;76.10;;;;;;4170838;28;20458;-63
2022/01/09 06:48:09;;;;;;;13.48;9.00;;;28.50;73.60;;;;;;4170811;28;20345;-63
2022/01/09 06:50:15;;;;;;;10.82;7.97;;;28.50;73.90;;;;;;4171251;28;20056;-63
2022/01/09 06:52:19;;;;;;;11.00;8.43;;;28.40;74.40;;;;;;4172396;28;20305;-63
2022/01/09 06:54:29;;;;;;;13.50;8.68;;;28.40;74.60;;;;;;4171285;28;20041;-63
2022/01/09 06:56:35;;;;;;;14.00;8.10;;;28.50;73.80;;;;;;4169014;28;20462;-63
2022/01/09 06:58:39;;;;;;;11.82;8.02;;;28.50;73.80;;;;;;4171139;28;20076;-64
2022/01/09 07:00:46;;;;;;;14.23;7.90;;;28.50;73.70;;;;;;4172388;28;20120;-64
2022/01/09 07:02:50;;;;;;;10.93;7.70;;;28.40;73.90;;;;;;4169978;28;20064;-64
2022/01/09 07:04:55;;;;;;;19.98;7.95;;;28.50;72.80;;;;;;4172510;28;20510;-64
2022/01/09 07:06:59;;;;;;;11.93;7.88;;;28.60;72.60;;;;;;4173431;28;20068;-64
2022/01/09 07:09:04;;;;;;;12.77;8.40;;;28.60;73.50;;;;;;4170443;28;20053;-64
2022/01/09 07:11:09;;;;;;;15.07;8.02;;;28.60;74.00;;;;;;4171884;28;20079;-63
2022/01/09 07:13:14;;;;;;;11.80;7.63;;;28.50;73.90;;;;;;4171158;28;20076;-64
2022/01/09 07:15:18;;;;;;;14.65;7.63;;;28.60;74.10;;;;;;4171198;28;20426;-64
2022/01/09 07:17:23;;;;;;;11.35;7.70;;;28.60;73.10;;;;;;4173904;28;20040;-63
2022/01/09 07:19:28;;;;;;;13.18;7.28;;;28.60;73.50;;;;;;4171468;28;20520;-64
2022/01/09 07:21:32;;;;;;;10.38;7.53;;;28.70;72.00;;;;;;4171362;28;20060;-63
2022/01/09 07:23:37;;;;;;;13.68;7.03;;;28.90;72.30;;;;;;4171029;28;20514;-63
2022/01/09 07:25:43;;;;;;;11.45;7.35;;;29.00;71.30;;;;;;4170494;28;20175;-63
2022/01/09 07:27:48;;;;;;;13.00;6.90;;;28.90;71.50;;;;;;4173187;28;20064;-63
2022/01/09 07:29:53;;;;;;;10.18;6.55;;;28.80;72.50;;;;;;4170034;28;20136;-63
2022/01/09 07:31:58;;;;;;;8.38;7.13;;;28.80;73.20;;;;;;4171332;28;20045;-63
2022/01/09 07:34:04;;;;;;;12.15;7.65;;;28.80;73.40;;;;;;4170165;28;20496;-64
2022/01/09 07:36:08;;;;;;;10.60;7.30;;;28.70;73.00;;;;;;4167413;28;20052;-64
2022/01/09 07:38:13;;;;;;;15.48;7.43;;;28.80;73.20;;;;;;4170125;28;20040;-64
2022/01/09 07:40:20;;;;;;;9.55;7.63;;;28.80;73.30;;;;;;4166976;28;20056;-62
2022/01/09 07:42:24;;;;;;;11.88;7.03;;;28.90;73.60;;;;;;4173356;28;20044;-63
2022/01/09 07:44:29;;;;;;;11.55;7.95;;;28.90;74.00;;;;;;4171501;28;20064;-62
2022/01/09 07:46:35;;;;;;;9.55;7.30;;;28.90;73.50;;;;;;4171009;28;20033;-62
2022/01/09 07:48:40;;;;;;;10.75;7.40;;;28.90;73.30;;;;;;4171098;28;20053;-64
2022/01/09 07:50:44;;;;;;;11.60;7.25;;;28.90;73.30;;;;;;4171227;28;20048;-62
2022/01/09 07:52:50;;;;;;;13.88;7.68;;;28.90;73.00;;;;;;4172326;28;20088;-63
2022/01/09 07:54:55;;;;;;;14.75;7.72;;;29.00;72.20;;;;;;4171378;28;20040;-63
2022/01/09 07:57:00;;;;;;;14.90;8.15;;;29.00;72.10;;;;;;4173498;28;20049;-63
2022/01/09 07:59:04;;;;;;;10.38;8.25;;;29.00;72.00;;;;;;4173387;28;20132;-63
2022/01/09 08:01:08;;;;;;;12.23;7.57;;;29.00;71.50;;;;;;4174989;28;20400;-63
2022/01/09 08:03:13;;;;;;;15.05;8.30;;;29.00;72.10;;;;;;4175863;28;20531;-62
2022/01/09 08:05:19;;;;;;;14.00;8.13;;;28.90;72.20;;;;;;4177048;28;20040;-62
2022/01/09 08:07:24;;;;;;;10.25;8.32;;;28.90;72.70;;;;;;4176304;28;20041;-63
2022/01/09 08:09:29;;;;;;;11.35;8.32;;;28.90;73.00;;;;;;4177067;28;20076;-62
2022/01/09 08:11:34;;;;;;;15.88;8.95;;;28.90;73.20;;;;;;4176153;28;20569;-62
2022/01/09 08:13:39;;;;;;;12.48;8.82;;;28.90;73.00;;;;;;4176682;28;20045;-62
2022/01/09 08:15:43;;;;;;;14.70;8.98;;;28.90;72.60;;;;;;4176895;28;20041;-62
2022/01/09 08:17:49;;;;;;;13.45;7.65;;;28.90;72.60;;;;;;4177042;28;20040;-62
2022/01/09 08:19:54;;;;;;;13.32;8.90;;;29.00;72.60;;;;;;4176009;28;20415;-62
2022/01/09 08:21:58;;;;;;;10.43;7.85;;;29.00;72.60;;;;;;4176968;28;20361;-62
2022/01/09 08:24:03;;;;;;;12.27;8.30;;;29.00;71.70;;;;;;4175917;28;20475;-64
2022/01/09 08:26:08;;;;;;;11.82;8.52;;;29.00;71.00;;;;;;4169894;28;20817;-63
2022/01/09 08:28:12;;;;;;;11.63;7.68;;;29.00;71.20;;;;;;4174909;28;20057;-63
2022/01/09 08:30:18;;;;;;;11.80;7.68;;;29.00;70.70;;;;;;4176761;28;20126;-63
2022/01/09 08:32:23;;;;;;;13.40;8.18;;;28.90;70.50;;;;;;4190664;28;20572;-63
2022/01/09 08:34:27;;;;;;;18.23;11.23;;;28.90;69.20;;;;;;4177118;28;20072;-63
2022/01/09 08:36:33;;;;;;;16.73;13.60;;;28.90;70.50;;;;;;4173986;28;20106;-63
2022/01/09 08:38:37;;;;;;;17.10;11.50;;;28.90;70.70;;;;;;4176443;28;20047;-63
2022/01/09 08:40:42;;;;;;;13.15;9.32;;;28.90;71.20;;;;;;4173319;28;20076;-63
2022/01/09 08:42:47;;;;;;;11.68;8.13;;;29.00;71.10;;;;;;4168052;28;20067;-63
2022/01/09 08:44:52;;;;;;;11.60;7.82;;;28.90;71.00;;;;;;4168629;28;20073;-64
2022/01/09 08:46:56;;;;;;;13.07;7.97;;;29.00;71.20;;;;;;4172978;28;20104;-63
2022/01/09 08:49:01;;;;;;;10.82;7.75;;;28.90;71.10;;;;;;4172649;28;20057;-63
2022/01/09 08:51:07;;;;;;;10.27;7.85;;;29.00;71.10;;;;;;4171870;28;20132;-64
2022/01/09 08:53:11;;;;;;;12.63;8.25;;;29.00;70.80;;;;;;4177033;28;20095;-62
2022/01/09 08:55:16;;;;;;;17.20;8.70;;;29.00;70.90;;;;;;4177332;28;20143;-62
2022/01/09 08:57:24;;;;;;;10.70;7.97;;;29.00;71.00;;;;;;4171027;28;20045;-62
2022/01/09 08:59:28;;;;;;;9.30;7.47;;;29.00;71.10;;;;;;4176846;28;20037;-61
2022/01/09 09:01:32;;;;;;;11.02;7.22;;;29.00;71.30;;;;;;4177092;28;20486;-61
2022/01/09 09:03:40;;;;;;;13.98;8.48;;;29.00;71.40;;;;;;4179659;28;20059;-62
2022/01/09 09:05:45;;;;;;;12.43;8.50;;;29.00;70.90;;;;;;4178898;28;20037;-64
2022/01/09 09:07:50;;;;;;;10.68;7.72;;;29.00;71.30;;;;;;4179743;28;20474;-63
2022/01/09 09:09:54;;;;;;;10.88;7.93;;;29.00;71.70;;;;;;4178180;28;20069;-63
2022/01/09 09:11:58;;;;;;;11.55;7.85;;;29.00;71.90;;;;;;4179978;28;20091;-62
2022/01/09 09:14:03;;;;;;;12.45;8.27;;;29.00;71.70;;;;;;4179220;28;20369;-64
2022/01/09 09:16:09;;;;;;;11.75;8.30;;;29.00;71.70;;;;;;4179178;28;20107;-63
2022/01/09 09:18:14;;;;;;;13.57;7.95;;;29.00;71.80;;;;;;4179596;28;20488;-62
2022/01/09 09:20:19;;;;;;;16.65;7.97;;;29.00;72.10;;;;;;4178969;28;20052;-61
2022/01/09 09:22:24;;;;;;;15.52;8.25;;;29.00;71.40;;;;;;4179292;28;20045;-62
2022/01/09 09:24:29;;;;;;;16.08;8.48;;;29.00;71.30;;;;;;4179326;28;20041;-63
2022/01/09 09:26:34;;;;;;;17.88;9.18;;;29.00;71.40;;;;;;4178857;28;20056;-63
2022/01/09 09:28:40;;;;;;;13.13;7.65;;;29.00;71.80;;;;;;4179462;28;20049;-65
2022/01/09 09:30:44;;;;;;;14.45;8.25;;;29.00;71.70;;;;;;4179206;28;20056;-64
2022/01/09 09:32:49;;;;;;;14.98;8.65;;;29.00;72.00;;;;;;4179226;28;20045;-63
2022/01/09 09:34:56;;;;;;;11.63;7.72;;;29.00;72.40;;;;;;4175729;28;20486;-62
2022/01/09 09:37:01;;;;;;;14.68;8.52;;;29.00;72.60;;;;;;4176574;28;20048;-63
2022/01/09 09:39:07;;;;;;;15.50;8.10;;;29.00;72.10;;;;;;4176634;28;20045;-63
2022/01/09 09:41:12;;;;;;;12.10;8.30;;;28.90;71.90;;;;;;4177921;28;20648;-63
2022/01/09 09:43:17;;;;;;;15.95;9.15;;;28.90;71.90;;;;;;4176434;28;20124;-63
2022/01/09 09:45:23;;;;;;;16.17;8.60;;;28.90;72.10;;;;;;4178093;28;20041;-64
2022/01/09 09:47:29;;;;;;;17.73;9.02;;;28.90;72.40;;;;;;4178176;28;20040;-64
2022/01/09 09:49:33;;;;;;;17.98;9.07;;;28.90;72.40;;;;;;4177622;28;20087;-64
2022/01/09 09:51:38;;;;;;;19.75;8.48;;;28.90;72.50;;;;;;4177415;28;20135;-65
2022/01/09 09:53:43;;;;;;;21.63;9.07;;;28.90;72.40;;;;;;4177536;28;20047;-63
2022/01/09 09:55:51;;;;;;;14.13;8.95;;;28.90;72.20;;;;;;4177683;28;20140;-64
2022/01/09 09:57:56;;;;;;;15.77;8.18;;;28.80;72.20;;;;;;4175243;28;20037;-62
2022/01/09 10:00:05;;;;;;;14.75;8.90;;;28.80;72.00;;;;;;4177792;28;20045;-63
2022/01/09 10:02:17;;;;;;;14.30;9.35;;;28.80;72.10;;;;;;4177545;28;20048;-63
2022/01/09 10:04:22;;;;;;;18.50;8.95;;;28.80;72.50;;;;;;4175650;28;20061;-63
2022/01/09 10:06:41;;;;;;;13.98;8.82;;;28.80;72.90;;;;;;4177149;28;20214;-63
2022/01/09 10:08:49;;;;;;;17.88;9.27;;;28.70;73.00;;;;;;4176617;28;20443;-64
2022/01/09 10:10:54;;;;;;;16.75;9.60;;;28.70;73.20;;;;;;4190846;28;20434;-63
2022/01/09 10:13:14;;;;;;;17.65;9.75;;;28.70;73.40;;;;;;4158587;28;20099;-64
2022/01/09 10:15:19;;;;;;;13.50;9.25;;;28.70;73.50;;;;;;4157704;28;20543;-64
2022/01/09 10:17:25;;;;;;;14.18;9.32;;;28.70;73.80;;;;;;4157451;28;20140;-64
2022/01/09 10:20:04;;;;;;;17.65;9.80;;;28.70;74.10;;;;;;4158740;28;20064;-63
2022/01/09 10:22:28;;;;;;;26.45;11.73;;;28.60;74.30;;;;;;4158482;28;20104;-64
2022/01/09 10:24:33;;;;;;;48.80;14.45;;;28.60;74.60;;;;;;4158095;28;20125;-64
2022/01/09 10:26:40;;;;;;;82.18;17.60;;;28.60;74.80;;;;;;4142748;28;20046;-64
2022/01/09 10:28:45;;;;;;;49.13;13.13;;;28.50;75.20;;;;;;4156494;28;20073;-64
2022/01/09 10:30:54;;;;;;;32.53;11.45;;;28.50;75.70;;;;;;4126115;28;20070;-64
2022/01/09 10:33:05;;;;;;;50.28;12.18;;;28.50;75.80;;;;;;4142398;28;20363;-64
2022/01/09 10:35:18;;;;;;;37.30;12.90;;;28.50;77.00;;;;;;4141174;28;20050;-63
2022/01/09 10:37:23;;;;;;;35.13;12.02;;;28.40;76.60;;;;;;4141779;28;20468;-63
2022/01/09 10:39:30;;;;;;;33.10;12.15;;;28.40;76.80;;;;;;4142063;28;20052;-63
2022/01/09 10:41:58;;;;;;;38.00;16.13;;;28.40;76.90;;;;;;4140425;28;20068;-63
2022/01/09 10:44:02;;;;;;;42.92;21.33;;;28.40;77.10;;;;;;4145781;28;20057;-64